Time;durP1;ratioP1;P1;durP2;ratioP2;P2;SDS_P1;SDS_P2;PMS_P1;PMS_P2;Temp;Humidity;BMP_temperature;BMP_pressure;BME280_temperature;BME280_humidity;BME280_pressure;Samples;Min_cycle;Max_cycle;Signal;HPM_P1;HPM_P2
2021/07/11 00:02:03;;;;;;;4.28;3.97;;;;;;;17.68;63.22;98453.28;5030999;28;20032;-62
2021/07/11 00:04:29;;;;;;;4.00;3.70;;;;;;;17.64;63.16;98448.34;5026461;28;20033;-63
2021/07/11 00:06:54;;;;;;;5.15;3.95;;;;;;;17.58;64.36;98452.06;5030874;28;20047;-63
2021/07/11 00:09:19;;;;;;;6.97;3.88;;;;;;;17.55;63.75;98456.53;5028810;28;20294;-63
2021/07/11 00:11:45;;;;;;;3.63;3.33;;;;;;;17.50;63.25;98448.97;5029294;28;20104;-63
2021/07/11 00:14:10;;;;;;;4.35;4.00;;;;;;;17.46;64.63;98444.03;5022777;28;20029;-63
2021/07/11 00:16:36;;;;;;;4.28;3.88;;;;;;;17.47;64.25;98448.31;5023566;28;20363;-63
2021/07/11 00:19:02;;;;;;;4.55;4.00;;;;;;;17.45;65.39;98442.34;5022484;28;20395;-63
2021/07/11 00:21:27;;;;;;;3.80;3.50;;;;;;;17.42;64.58;98439.91;5023623;28;20037;-62
2021/07/11 00:23:53;;;;;;;3.95;3.65;;;;;;;17.40;65.00;98441.75;5029423;28;20022;-63
2021/07/11 00:26:18;;;;;;;4.22;3.85;;;;;;;17.38;65.20;98436.63;5028721;28;20374;-62
2021/07/11 00:28:44;;;;;;;4.50;4.10;;;;;;;17.36;64.70;98434.09;5026115;28;20041;-63
2021/07/11 00:31:10;;;;;;;3.90;3.42;;;;;;;17.32;64.88;98431.75;5025004;28;20383;-63
2021/07/11 00:33:35;;;;;;;4.78;4.38;;;;;;;17.33;64.32;98426.50;5026863;28;20026;-62
2021/07/11 00:36:00;;;;;;;4.30;3.95;;;;;;;17.31;64.82;98424.91;5029168;28;20497;-62
2021/07/11 00:38:26;;;;;;;4.22;3.65;;;;;;;17.33;64.80;98428.25;5024551;28;20040;-62
2021/07/11 00:40:51;;;;;;;3.88;3.65;;;;;;;17.30;64.43;98429.25;5026884;28;20116;-62
2021/07/11 00:43:17;;;;;;;4.55;3.95;;;;;;;17.27;65.45;98428.56;5030176;28;20039;-63
2021/07/11 00:45:42;;;;;;;3.90;3.60;;;;;;;17.29;64.60;98434.50;5024947;28;20287;-63
2021/07/11 00:48:08;;;;;;;4.20;3.90;;;;;;;17.30;65.08;98433.59;5030806;28;20081;-62
2021/07/11 00:50:34;;;;;;;3.42;3.22;;;;;;;17.22;64.73;98433.97;5026487;28;20037;-63
2021/07/11 00:52:59;;;;;;;4.75;3.45;;;;;;;17.22;65.78;98435.72;5025010;28;20025;-63
2021/07/11 00:55:25;;;;;;;5.63;3.72;;;;;;;17.17;65.54;98438.53;5026853;28;20037;-63
2021/07/11 00:57:51;;;;;;;4.93;4.15;;;;;;;17.12;66.16;98437.06;5027422;28;20275;-63
2021/07/11 01:00:17;;;;;;;3.90;3.60;;;;;;;17.12;66.65;98440.50;5026431;28;20053;-63
2021/07/11 01:02:54;;;;;;;3.78;3.42;;;;;;;17.12;66.81;98443.09;5025482;28;20068;-63
2021/07/11 01:05:23;;;;;;;3.60;3.33;;;;;;;17.10;67.41;98439.72;5028190;28;20463;-63
2021/07/11 01:08:09;;;;;;;4.18;3.88;;;;;;;17.06;67.44;98453.72;5021847;28;20387;-63
2021/07/11 01:10:43;;;;;;;4.30;3.90;;;;;;;16.96;67.33;98449.91;5028679;28;20303;-62
2021/07/11 01:13:12;;;;;;;4.30;3.97;;;;;;;16.95;67.79;98449.97;5030042;28;20029;-62
2021/07/11 01:15:39;;;;;;;5.82;3.95;;;;;;;16.84;67.77;98451.34;5028631;28;20022;-62
2021/07/11 01:18:07;;;;;;;4.05;3.75;;;;;;;16.82;67.84;98458.34;5022940;28;20033;-63
2021/07/11 01:20:38;;;;;;;4.43;3.95;;;;;;;16.81;66.90;98455.81;5024876;28;20113;-63
2021/07/11 01:23:07;;;;;;;4.30;4.00;;;;;;;16.84;66.73;98453.09;5026007;28;20040;-62
2021/07/11 01:25:40;;;;;;;4.28;3.88;;;;;;;16.82;66.71;98444.53;5026591;28;21818;-62
2021/07/11 01:28:11;;;;;;;4.85;4.15;;;;;;;16.90;65.75;98447.59;5025164;28;20026;-62
2021/07/11 01:30:37;;;;;;;4.95;4.38;;;;;;;16.97;64.95;98438.66;5026936;28;20383;-62
2021/07/11 01:33:05;;;;;;;6.78;4.57;;;;;;;16.96;65.07;98434.38;5029329;28;20056;-62
2021/07/11 01:35:32;;;;;;;5.90;4.18;;;;;;;16.92;65.16;98445.81;5028738;28;20036;-62
2021/07/11 01:37:59;;;;;;;4.72;3.58;;;;;;;16.88;65.16;98444.28;5030941;28;20024;-62
2021/07/11 01:40:28;;;;;;;3.83;3.53;;;;;;;16.81;66.67;98441.13;5031750;28;20026;-62
2021/07/11 01:42:54;;;;;;;4.78;4.35;;;;;;;16.76;65.71;98439.69;5028544;28;20033;-62
2021/07/11 01:45:20;;;;;;;4.53;3.63;;;;;;;16.80;65.46;98436.03;5036011;28;20035;-62
2021/07/11 01:47:45;;;;;;;4.55;4.18;;;;;;;16.77;66.25;98428.38;5032743;28;20033;-62
2021/07/11 01:50:12;;;;;;;3.78;3.47;;;;;;;16.75;65.53;98430.22;5025900;28;20040;-62
2021/07/11 01:52:38;;;;;;;4.07;3.78;;;;;;;16.75;65.61;98427.63;5030274;28;20112;-62
2021/07/11 01:55:07;;;;;;;4.28;3.78;;;;;;;16.77;65.62;98430.97;5026449;28;20474;-62
2021/07/11 01:57:34;;;;;;;4.35;4.00;;;;;;;16.72;66.67;98438.13;5027845;28;20040;-62
2021/07/11 01:59:59;;;;;;;4.03;3.83;;;;;;;16.65;67.05;98440.16;5031378;28;20041;-62
2021/07/11 02:02:25;;;;;;;5.07;4.68;;;;;;;16.62;67.85;98429.09;5030882;28;20056;-62
2021/07/11 02:04:50;;;;;;;3.85;3.55;;;;;;;16.59;67.35;98432.66;5028231;28;20029;-62
2021/07/11 02:07:16;;;;;;;4.38;3.95;;;;;;;16.56;67.26;98429.34;5029471;28;20267;-62
2021/07/11 02:09:41;;;;;;;3.88;3.58;;;;;;;16.57;68.14;98433.63;5030256;28;20076;-61
2021/07/11 02:12:08;;;;;;;4.68;3.33;;;;;;;16.56;68.75;98439.69;5023255;28;20402;-61
2021/07/11 02:14:37;;;;;;;6.32;3.25;;;;;;;16.58;67.95;98440.53;5027490;28;20029;-62
2021/07/11 02:17:10;;;;;;;3.63;3.42;;;;;;;16.57;67.58;98437.09;5025892;28;20138;-62
2021/07/11 02:19:38;;;;;;;3.58;3.38;;;;;;;16.64;66.85;98447.97;5028825;28;20547;-62
2021/07/11 02:22:05;;;;;;;3.90;3.60;;;;;;;16.62;67.00;98449.81;5031440;28;20021;-62
2021/07/11 02:24:38;;;;;;;3.60;3.40;;;;;;;16.59;67.20;98453.38;5034253;28;20028;-62
2021/07/11 02:27:05;;;;;;;4.22;3.83;;;;;;;16.55;67.76;98456.16;5037130;28;20093;-62
2021/07/11 02:29:37;;;;;;;4.30;3.25;;;;;;;16.54;67.60;98449.31;5034426;28;20017;-62
2021/07/11 02:32:04;;;;;;;3.45;2.97;;;;;;;16.58;67.20;98443.94;5032491;28;20026;-62
2021/07/11 02:34:31;;;;;;;3.75;3.45;;;;;;;16.63;67.15;98447.16;5031851;28;20025;-62
2021/07/11 02:37:01;;;;;;;3.58;3.38;;;;;;;16.72;67.14;98459.66;5027833;28;20081;-62
2021/07/11 02:39:27;;;;;;;3.30;3.10;;;;;;;16.74;67.37;98459.59;5027446;28;20032;-62
2021/07/11 02:42:00;;;;;;;3.47;3.28;;;;;;;16.76;66.72;98456.03;5029612;28;20025;-62
2021/07/11 02:44:26;;;;;;;3.22;3.03;;;;;;;16.78;67.22;98455.97;5031701;28;20453;-62
2021/07/11 02:46:57;;;;;;;11.57;7.30;;;;;;;16.82;66.59;98458.34;5028492;28;20033;-62
2021/07/11 02:49:25;;;;;;;15.05;8.43;;;;;;;16.77;67.76;98457.69;5027589;28;20025;-62
2021/07/11 02:51:52;;;;;;;5.38;3.95;;;;;;;16.84;66.57;98463.44;5032951;28;20052;-62
2021/07/11 02:54:24;;;;;;;3.58;3.00;;;;;;;16.73;66.20;98460.50;5023747;28;20029;-62
2021/07/11 02:56:54;;;;;;;4.10;3.70;;;;;;;16.81;65.87;98453.22;5027538;28;20022;-62
2021/07/11 02:59:21;;;;;;;3.20;3.00;;;;;;;16.75;66.54;98454.38;5027906;28;20025;-62
2021/07/11 03:01:47;;;;;;;3.67;2.90;;;;;;;16.67;66.56;98451.28;5033138;28;20266;-62
2021/07/11 03:04:14;;;;;;;4.50;3.40;;;;;;;16.61;67.76;98455.91;5030995;28;20287;-62
2021/07/11 03:06:40;;;;;;;5.30;3.17;;;;;;;16.60;67.29;98444.69;5027858;28;20029;-62
2021/07/11 03:09:06;;;;;;;4.07;3.40;;;;;;;16.64;67.13;98460.94;5031510;28;20031;-62
2021/07/11 03:11:35;;;;;;;3.72;3.53;;;;;;;16.61;68.18;98448.13;5024853;28;20220;-61
2021/07/11 03:14:02;;;;;;;3.88;3.58;;;;;;;16.69;66.83;98446.88;5031957;28;20029;-62
2021/07/11 03:16:28;;;;;;;4.03;3.72;;;;;;;16.65;66.57;98450.50;5027309;28;20022;-61
2021/07/11 03:18:56;;;;;;;4.10;3.70;;;;;;;16.73;66.88;98448.41;5027107;28;20458;-62
2021/07/11 03:21:23;;;;;;;4.78;3.50;;;;;;;16.59;67.58;98445.59;5031253;28;20025;-62
2021/07/11 03:23:51;;;;;;;4.18;3.78;;;;;;;16.57;68.30;98442.25;5032215;28;20053;-61
2021/07/11 03:26:17;;;;;;;4.07;3.55;;;;;;;16.63;67.09;98441.16;5030627;28;20036;-62
2021/07/11 03:28:46;;;;;;;3.40;3.10;;;;;;;16.70;66.34;98445.97;5022977;28;20034;-61
2021/07/11 03:31:11;;;;;;;5.82;3.05;;;;;;;16.65;67.76;98447.91;5036613;28;20385;-61
2021/07/11 03:33:44;;;;;;;3.50;3.20;;;;;;;16.65;67.50;98453.09;5032291;28;20025;-61
2021/07/11 03:36:12;;;;;;;3.00;2.80;;;;;;;16.69;67.06;98456.38;5035054;28;20104;-61
2021/07/11 03:38:45;;;;;;;3.78;3.50;;;;;;;16.72;67.52;98454.47;5029111;28;20060;-62
2021/07/11 03:41:14;;;;;;;3.70;3.42;;;;;;;16.74;67.64;98454.44;5025690;28;20083;-62
2021/07/11 03:43:42;;;;;;;4.03;3.63;;;;;;;16.81;67.83;98460.97;5028231;28;20088;-63
2021/07/11 03:46:09;;;;;;;3.20;3.00;;;;;;;16.84;68.90;98461.72;5029982;28;20116;-61
2021/07/11 03:48:46;;;;;;;3.85;3.55;;;;;;;16.90;69.34;98466.59;5030016;28;20052;-62
2021/07/11 03:51:13;;;;;;;4.53;4.15;;;;;;;16.99;68.74;98459.28;5032719;28;20366;-62
2021/07/11 03:53:39;;;;;;;3.40;3.20;;;;;;;17.05;68.74;98459.00;5030668;28;20036;-63
2021/07/11 03:56:07;;;;;;;4.03;3.70;;;;;;;17.12;68.06;98456.03;5028474;28;20367;-62
2021/07/11 03:58:42;;;;;;;3.50;2.70;;;;;;;17.19;67.78;98453.97;5027158;28;20042;-62
2021/07/11 04:01:07;;;;;;;;;;;;;;;17.24;68.01;98458.03;5039888;28;20026;-62
2021/07/11 04:03:37;;;;;;;3.17;2.97;;;;;;;17.25;67.00;98464.91;5025433;28;19928;-62
2021/07/11 04:06:05;;;;;;;2.90;2.80;;;;;;;17.31;67.21;98461.19;5026137;28;20096;-62
2021/07/11 04:08:33;;;;;;;3.72;2.90;;;;;;;17.36;67.42;98464.38;5028359;28;20067;-63
2021/07/11 04:10:59;;;;;;;4.05;2.85;;;;;;;17.48;66.08;98474.16;5026499;28;20318;-63
2021/07/11 04:13:25;;;;;;;2.95;2.75;;;;;;;17.61;65.69;98464.84;5025931;28;20076;-62
2021/07/11 04:15:54;;;;;;;3.20;3.00;;;;;;;17.77;64.91;98475.31;5027230;28;20370;-62
2021/07/11 04:18:23;;;;;;;3.20;3.00;;;;;;;17.95;64.75;98470.97;5029662;28;20136;-62
2021/07/11 04:20:54;;;;;;;2.95;2.60;;;;;;;18.14;63.79;98467.31;5027249;28;20049;-63
2021/07/11 04:23:23;;;;;;;3.20;3.00;;;;;;;18.31;63.22;98465.59;5032339;28;20318;-62
2021/07/11 04:25:51;;;;;;;3.13;2.83;;;;;;;18.35;63.63;98460.16;5025267;28;20045;-61
2021/07/11 04:28:16;;;;;;;3.75;3.40;;;;;;;18.40;62.19;98455.56;5027114;28;20048;-62
2021/07/11 04:30:42;;;;;;;3.08;2.88;;;;;;;18.34;62.14;98461.06;5026644;28;20038;-62
2021/07/11 04:33:11;;;;;;;4.47;2.97;;;;;;;18.52;61.85;98454.06;5026981;28;20074;-62
2021/07/11 04:35:36;;;;;;;3.35;3.15;;;;;;;18.72;61.33;98461.66;5027657;28;20108;-62
2021/07/11 04:38:02;;;;;;;2.95;2.70;;;;;;;18.96;61.06;98456.88;5026722;28;20048;-62
2021/07/11 04:40:27;;;;;;;3.15;2.95;;;;;;;19.07;60.54;98457.94;5024180;28;20037;-63
2021/07/11 04:42:53;;;;;;;3.60;3.35;;;;;;;19.18;59.34;98457.31;5028142;28;20048;-63
2021/07/11 04:45:19;;;;;;;3.63;3.10;;;;;;;19.39;59.25;98465.69;5028653;28;20051;-63
2021/07/11 04:47:44;;;;;;;3.83;3.05;;;;;;;19.32;60.69;98453.94;5027532;28;20037;-62
2021/07/11 04:50:10;;;;;;;3.00;2.80;;;;;;;19.55;59.38;98451.75;5029421;28;20401;-62
2021/07/11 04:52:40;;;;;;;3.30;3.10;;;;;;;19.66;58.20;98448.50;5031969;28;20044;-63
2021/07/11 04:55:08;;;;;;;5.20;3.28;;;;;;;19.74;58.23;98454.09;5026887;28;20050;-63
2021/07/11 04:57:34;;;;;;;4.30;3.40;;;;;;;19.75;59.50;98460.97;5029519;28;20045;-62
2021/07/11 04:59:59;;;;;;;4.53;3.13;;;;;;;19.89;59.21;98461.03;5026508;28;21004;-62
2021/07/11 05:02:25;;;;;;;3.40;3.10;;;;;;;19.92;57.38;98458.22;5024860;28;20111;-63
2021/07/11 05:04:52;;;;;;;3.03;2.83;;;;;;;19.99;56.94;98456.91;5028344;28;20240;-63
2021/07/11 05:07:18;;;;;;;3.22;3.03;;;;;;;19.84;57.97;98467.41;5026585;28;20091;-62
2021/07/11 05:09:43;;;;;;;5.82;3.42;;;;;;;19.86;57.56;98458.56;5031006;28;20136;-62
2021/07/11 05:12:09;;;;;;;3.20;3.00;;;;;;;19.95;57.56;98473.66;5026320;28;20131;-62
2021/07/11 05:14:34;;;;;;;7.22;3.28;;;;;;;20.03;57.66;98465.38;5030976;28;20045;-62
2021/07/11 05:17:00;;;;;;;3.33;3.13;;;;;;;20.09;57.66;98465.03;5033471;28;20126;-62
2021/07/11 05:19:25;;;;;;;3.90;3.70;;;;;;;20.22;57.14;98470.31;5026245;28;20046;-62
2021/07/11 05:21:50;;;;;;;4.13;3.03;;;;;;;20.21;57.08;98469.50;5030578;28;20119;-62
2021/07/11 05:24:16;;;;;;;3.60;3.35;;;;;;;20.32;57.05;98472.31;5034068;28;20029;-63
2021/07/11 05:26:41;;;;;;;3.58;3.28;;;;;;;20.09;57.55;98475.44;5030705;28;20034;-62
2021/07/11 05:29:07;;;;;;;3.33;3.13;;;;;;;20.32;57.41;98480.13;5037442;28;20033;-62
2021/07/11 05:31:32;;;;;;;3.13;2.92;;;;;;;20.28;57.49;98481.22;5033378;28;20087;-62
2021/07/11 05:33:57;;;;;;;5.55;3.72;;;;;;;20.41;57.20;98489.97;5029335;28;20033;-62
2021/07/11 05:36:23;;;;;;;3.63;3.28;;;;;;;20.48;56.32;98490.44;5031745;28;20286;-62
2021/07/11 05:38:48;;;;;;;3.22;2.97;;;;;;;20.36;56.87;98492.03;5032216;28;20033;-62
2021/07/11 05:41:14;;;;;;;3.80;3.05;;;;;;;20.49;57.19;98499.94;5027344;28;20048;-62
2021/07/11 05:43:39;;;;;;;2.72;2.63;;;;;;;20.65;56.53;98497.22;5033739;28;20024;-63
2021/07/11 05:46:04;;;;;;;3.92;3.63;;;;;;;20.43;57.61;98501.16;5033081;28;20500;-63
2021/07/11 05:48:30;;;;;;;3.90;3.70;;;;;;;20.46;57.79;98489.69;5033194;28;20037;-62
2021/07/11 05:50:55;;;;;;;3.25;3.05;;;;;;;20.56;57.68;98482.16;5029113;28;20764;-63
2021/07/11 05:53:21;;;;;;;3.38;3.17;;;;;;;20.78;57.01;98475.53;5028747;28;20048;-62
2021/07/11 05:55:47;;;;;;;3.53;3.33;;;;;;;20.77;57.35;98473.00;5033150;28;20065;-62
2021/07/11 05:58:12;;;;;;;4.00;3.45;;;;;;;20.97;56.99;98478.63;5033626;28;20081;-62
2021/07/11 06:00:38;;;;;;;3.15;2.95;;;;;;;21.05;56.16;98482.53;5031895;28;20062;-62
2021/07/11 06:03:03;;;;;;;3.53;3.22;;;;;;;21.22;56.11;98482.31;5033225;28;20371;-62
2021/07/11 06:05:29;;;;;;;3.17;2.97;;;;;;;21.34;55.77;98489.34;5031526;28;20033;-63
2021/07/11 06:07:54;;;;;;;3.67;3.38;;;;;;;21.43;55.44;98496.56;5029068;28;20044;-63
2021/07/11 06:10:20;;;;;;;4.93;3.22;;;;;;;21.43;55.01;98497.41;5030027;28;20029;-63
2021/07/11 06:12:45;;;;;;;5.32;2.90;;;;;;;21.53;54.53;98499.41;5029933;28;20024;-63
2021/07/11 06:15:11;;;;;;;4.07;3.25;;;;;;;21.39;55.12;98490.72;5025944;28;20117;-63
2021/07/11 06:17:37;;;;;;;4.22;3.40;;;;;;;21.19;55.45;98498.16;5028294;28;20040;-63
2021/07/11 06:20:08;;;;;;;3.92;3.63;;;;;;;21.45;54.87;98504.28;5029054;28;20105;-63
2021/07/11 06:22:34;;;;;;;3.13;2.92;;;;;;;21.19;55.30;98513.78;5030569;28;20028;-63
2021/07/11 06:25:06;;;;;;;2.85;2.65;;;;;;;21.06;55.63;98518.09;5027390;28;20091;-62
2021/07/11 06:27:32;;;;;;;3.90;3.53;;;;;;;21.22;55.24;98524.03;5025701;28;20032;-62
2021/07/11 06:29:58;;;;;;;3.63;3.40;;;;;;;21.11;55.53;98522.06;5026692;28;20044;-62
2021/07/11 06:32:23;;;;;;;3.25;3.15;;;;;;;21.06;55.49;98531.13;5029165;28;20033;-62
2021/07/11 06:34:49;;;;;;;3.75;2.55;;;;;;;21.14;54.89;98534.94;5026950;28;20041;-63
2021/07/11 06:37:14;;;;;;;3.75;2.95;;;;;;;21.12;54.91;98535.97;5029891;28;20091;-62
2021/07/11 06:39:39;;;;;;;2.83;2.63;;;;;;;21.26;55.04;98542.00;5032363;28;20268;-62
2021/07/11 06:42:05;;;;;;;3.60;3.30;;;;;;;21.41;55.29;98553.22;5031600;28;20033;-62
2021/07/11 06:44:30;;;;;;;2.95;2.75;;;;;;;21.50;55.29;98555.25;5027146;28;20037;-62
2021/07/11 06:46:56;;;;;;;2.47;2.38;;;;;;;21.69;55.16;98549.66;5031911;28;20033;-62
2021/07/11 06:49:21;;;;;;;4.07;2.42;;;;;;;21.87;54.76;98546.69;5028703;28;20379;-63
2021/07/11 06:51:46;;;;;;;2.83;2.63;;;;;;;21.82;54.89;98555.75;5030800;28;20122;-62
2021/07/11 06:54:12;;;;;;;2.75;2.65;;;;;;;21.87;54.85;98558.91;5030599;28;20433;-62
2021/07/11 06:56:38;;;;;;;4.22;2.38;;;;;;;21.88;55.16;98569.25;5024022;28;20079;-62
2021/07/11 06:59:03;;;;;;;3.25;3.05;;;;;;;21.77;55.46;98576.94;5029653;28;20037;-63
2021/07/11 07:01:29;;;;;;;3.20;2.97;;;;;;;21.72;55.95;98586.00;5029058;28;20028;-63
2021/07/11 07:03:54;;;;;;;3.88;3.45;;;;;;;21.58;56.10;98592.13;5028185;28;20403;-63
2021/07/11 07:06:20;;;;;;;4.95;3.60;;;;;;;21.68;55.80;98589.75;5030762;28;20025;-64
2021/07/11 07:08:45;;;;;;;3.97;3.72;;;;;;;21.70;55.81;98593.94;5027503;28;20112;-63
2021/07/11 07:11:11;;;;;;;3.65;3.30;;;;;;;21.60;56.34;98592.84;5029295;28;20033;-63
2021/07/11 07:13:36;;;;;;;4.10;3.30;;;;;;;21.56;56.52;98583.53;5030445;28;20033;-64
2021/07/11 07:16:02;;;;;;;4.40;4.00;;;;;;;21.69;55.82;98583.59;5030180;28;20397;-63
2021/07/11 07:18:27;;;;;;;3.70;3.50;;;;;;;21.69;56.00;98594.88;5027566;28;20124;-63
2021/07/11 07:20:52;;;;;;;4.20;3.95;;;;;;;21.69;56.37;98579.19;5028875;28;20541;-63
2021/07/11 07:23:18;;;;;;;8.93;4.85;;;;;;;21.83;55.74;98562.66;5029455;28;20036;-63
2021/07/11 07:25:43;;;;;;;5.28;4.85;;;;;;;21.96;55.58;98568.78;5025499;28;20037;-63
2021/07/11 07:28:11;;;;;;;4.50;4.20;;;;;;;22.18;55.00;98578.63;5026317;28;20025;-64
2021/07/11 07:30:37;;;;;;;4.50;4.25;;;;;;;22.30;54.74;98580.41;5027573;28;20026;-63
2021/07/11 07:33:02;;;;;;;5.07;4.75;;;;;;;22.49;54.16;98575.59;5028249;28;20278;-63
2021/07/11 07:35:28;;;;;;;4.45;4.15;;;;;;;22.42;54.50;98582.19;5030586;28;20044;-63
2021/07/11 07:37:53;;;;;;;4.05;3.85;;;;;;;22.42;54.59;98579.59;5032050;28;20029;-62
2021/07/11 07:40:20;;;;;;;4.20;3.90;;;;;;;22.55;54.42;98582.19;5025871;28;20025;-63
2021/07/11 07:42:47;;;;;;;4.18;3.97;;;;;;;22.62;53.85;98591.28;5027229;28;20148;-63
2021/07/11 07:45:13;;;;;;;3.63;3.22;;;;;;;22.73;54.29;98589.66;5026247;28;20044;-62
2021/07/11 07:47:39;;;;;;;6.88;3.80;;;;;;;22.85;53.84;98587.13;5026547;28;20344;-63
2021/07/11 07:50:08;;;;;;;4.38;4.15;;;;;;;22.75;54.31;98600.81;5027211;28;20021;-63
2021/07/11 07:52:33;;;;;;;3.83;3.63;;;;;;;22.75;53.77;98595.59;5024116;28;20040;-63
2021/07/11 07:54:59;;;;;;;4.57;4.28;;;;;;;22.50;54.61;98602.56;5023978;28;20021;-62
2021/07/11 07:57:24;;;;;;;4.72;4.32;;;;;;;22.77;54.09;98608.56;5027629;28;20037;-63
2021/07/11 07:59:50;;;;;;;4.22;3.92;;;;;;;22.63;54.85;98612.09;5027928;28;20041;-63
2021/07/11 08:02:15;;;;;;;3.90;3.65;;;;;;;22.85;54.18;98618.50;5029456;28;20116;-62
2021/07/11 08:04:42;;;;;;;4.10;3.90;;;;;;;22.98;54.19;98616.72;5028034;28;20385;-62
2021/07/11 08:07:08;;;;;;;4.90;4.50;;;;;;;22.87;54.08;98627.94;5028795;28;20049;-63
2021/07/11 08:09:33;;;;;;;4.72;4.32;;;;;;;22.96;54.30;98624.66;5028154;28;20080;-63
2021/07/11 08:11:59;;;;;;;4.80;4.00;;;;;;;23.27;53.88;98628.56;5024291;28;20036;-63
2021/07/11 08:14:24;;;;;;;4.00;3.53;;;;;;;23.57;52.96;98647.38;5026451;28;20037;-63
2021/07/11 08:16:50;;;;;;;3.80;3.50;;;;;;;23.22;53.36;98636.75;5024154;28;20026;-63
2021/07/11 08:19:15;;;;;;;3.97;3.78;;;;;;;23.19;53.34;98641.38;5028001;28;20053;-63
2021/07/11 08:21:41;;;;;;;3.78;3.42;;;;;;;23.08;53.88;98643.91;5027755;28;20061;-63
2021/07/11 08:24:06;;;;;;;3.40;3.20;;;;;;;23.20;53.26;98641.28;5029318;28;20064;-63
2021/07/11 08:26:32;;;;;;;4.10;3.80;;;;;;;23.16;52.97;98625.91;5024993;28;20128;-63
2021/07/11 08:28:59;;;;;;;3.40;3.20;;;;;;;23.28;53.25;98625.03;5020765;28;20037;-64
2021/07/11 08:31:24;;;;;;;3.85;3.58;;;;;;;23.42;52.32;98629.28;5025333;28;20029;-63
2021/07/11 08:33:50;;;;;;;3.67;3.38;;;;;;;23.63;52.08;98636.47;5027180;28;20136;-63
2021/07/11 08:36:15;;;;;;;3.58;3.38;;;;;;;23.95;51.08;98625.41;5030165;28;20030;-64
2021/07/11 08:38:40;;;;;;;5.20;4.88;;;;;;;24.10;50.01;98632.16;5026564;28;20091;-63
2021/07/11 08:41:06;;;;;;;3.40;3.20;;;;;;;24.11;50.17;98626.78;5027593;28;20054;-64
2021/07/11 08:43:32;;;;;;;4.63;3.28;;;;;;;24.06;50.34;98620.25;5028724;28;20379;-63
2021/07/11 08:45:57;;;;;;;3.28;3.05;;;;;;;23.65;50.79;98620.63;5030058;28;20033;-63
2021/07/11 08:48:22;;;;;;;4.13;3.20;;;;;;;23.49;51.59;98626.16;5029558;28;20040;-63
2021/07/11 08:50:48;;;;;;;4.93;3.70;;;;;;;23.26;51.91;98608.59;5027885;28;20029;-63
2021/07/11 08:53:15;;;;;;;3.28;3.03;;;;;;;23.27;51.75;98615.50;5027697;28;20033;-63
2021/07/11 08:55:42;;;;;;;4.15;3.85;;;;;;;23.16;52.15;98610.19;5025866;28;20061;-63
2021/07/11 08:58:08;;;;;;;3.60;3.30;;;;;;;23.13;52.31;98618.25;5020920;28;20033;-63
2021/07/11 09:00:37;;;;;;;4.85;3.58;;;;;;;23.18;52.31;98624.00;5027735;28;20381;-63
2021/07/11 09:03:05;;;;;;;3.88;2.97;;;;;;;22.94;52.53;98623.09;5023415;28;20125;-63
2021/07/11 09:05:41;;;;;;;3.05;2.90;;;;;;;22.94;52.71;98618.72;5021994;28;20525;-63
2021/07/11 09:08:10;;;;;;;3.30;3.00;;;;;;;23.15;52.62;98611.97;5028879;28;20116;-64
2021/07/11 09:10:41;;;;;;;3.45;3.15;;;;;;;23.28;52.36;98611.94;5030445;28;20294;-65
2021/07/11 09:13:12;;;;;;;3.50;3.20;;;;;;;23.26;52.16;98608.59;5026354;28;20083;-64
2021/07/11 09:15:39;;;;;;;3.60;3.30;;;;;;;23.52;51.92;98610.22;5025329;28;20030;-64
2021/07/11 09:18:04;;;;;;;3.20;3.00;;;;;;;23.37;51.59;98608.69;5023505;28;20034;-64
2021/07/11 09:20:31;;;;;;;4.13;3.25;;;;;;;23.31;51.94;98610.88;5027468;28;20358;-64
2021/07/11 09:22:59;;;;;;;3.33;3.03;;;;;;;23.16;51.88;98605.81;5023564;28;20036;-64
2021/07/11 09:25:24;;;;;;;3.28;3.08;;;;;;;23.05;52.10;98612.72;5025580;28;20124;-63
2021/07/11 09:27:50;;;;;;;3.45;3.25;;;;;;;23.06;52.44;98599.53;5026471;28;20113;-63
2021/07/11 09:30:17;;;;;;;3.72;3.38;;;;;;;23.07;52.94;98603.00;5026504;28;20402;-63
2021/07/11 09:32:43;;;;;;;4.10;3.50;;;;;;;23.05;52.91;98604.88;5026107;28;20636;-63
2021/07/11 09:35:15;;;;;;;3.13;2.92;;;;;;;23.16;52.94;98607.59;5029369;28;20455;-62
2021/07/11 09:37:43;;;;;;;9.52;3.85;;;;;;;23.16;52.90;98610.19;5027231;28;20022;-63
2021/07/11 09:40:10;;;;;;;3.50;3.28;;;;;;;22.80;53.89;98615.34;5021265;28;20030;-62
2021/07/11 09:42:41;;;;;;;3.30;3.05;;;;;;;22.94;53.62;98618.72;5025796;28;20053;-62
2021/07/11 09:45:15;;;;;;;3.13;2.75;;;;;;;22.95;52.86;98614.31;5025986;28;20091;-62
2021/07/11 09:47:41;;;;;;;;;;;;;;;22.87;52.70;98611.41;5028571;28;20121;-63
2021/07/11 09:50:12;;;;;;;3.30;3.03;;;;;;;22.83;52.47;98625.63;5032029;28;20256;-64
2021/07/11 09:52:45;;;;;;;2.85;2.75;;;;;;;22.92;52.55;98619.72;5027385;28;20029;-63
2021/07/11 09:55:21;;;;;;;3.50;3.20;;;;;;;22.59;53.32;98621.09;5030485;28;20057;-64
2021/07/11 09:57:56;;;;;;;3.25;2.95;;;;;;;22.66;53.78;98611.88;5030420;28;20036;-64
2021/07/11 10:00:25;;;;;;;2.92;2.78;;;;;;;22.70;53.62;98607.34;5027873;28;20021;-63
2021/07/11 10:02:56;;;;;;;2.70;2.60;;;;;;;22.72;53.66;98605.44;5030298;28;20041;-64
2021/07/11 10:05:23;;;;;;;3.05;2.85;;;;;;;22.73;54.04;98600.13;5028964;28;20374;-63
2021/07/11 10:07:49;;;;;;;3.20;2.92;;;;;;;22.57;53.87;98596.84;5030956;28;20037;-63
2021/07/11 10:10:17;;;;;;;3.10;2.90;;;;;;;22.74;53.61;98601.75;5025371;28;20024;-63
2021/07/11 10:12:45;;;;;;;3.65;3.33;;;;;;;22.76;53.54;98601.66;5031027;28;20107;-63
2021/07/11 10:15:15;;;;;;;3.35;3.15;;;;;;;22.80;53.09;98599.66;5029045;28;20124;-64
2021/07/11 10:17:47;;;;;;;3.55;3.25;;;;;;;22.73;53.20;98597.50;5025889;28;20030;-64
2021/07/11 10:20:16;;;;;;;3.00;2.80;;;;;;;22.65;53.48;98599.78;5029222;28;20098;-64
2021/07/11 10:22:44;;;;;;;4.70;2.95;;;;;;;22.43;54.27;98596.94;5033952;28;20556;-64
2021/07/11 10:25:15;;;;;;;3.22;3.03;;;;;;;22.41;54.46;98590.97;5028516;28;20032;-63
2021/07/11 10:27:43;;;;;;;3.47;3.28;;;;;;;22.25;54.92;98593.78;5030336;28;20033;-63
2021/07/11 10:30:10;;;;;;;3.08;2.78;;;;;;;22.30;54.89;98601.31;5027597;28;20103;-62
2021/07/11 10:32:35;;;;;;;3.92;3.63;;;;;;;22.43;54.64;98617.00;5026595;28;20118;-62
2021/07/11 10:35:16;;;;;;;4.60;2.95;;;;;;;22.51;54.68;98622.53;5031684;28;20049;-63
2021/07/11 10:37:54;;;;;;;3.22;3.03;;;;;;;22.52;54.49;98617.22;5029388;28;20033;-63
2021/07/11 10:40:31;;;;;;;3.35;3.15;;;;;;;22.45;55.01;98626.41;5028917;28;20436;-63
2021/07/11 10:42:57;;;;;;;3.15;2.88;;;;;;;22.58;54.46;98635.09;5028918;28;20379;-63
2021/07/11 10:45:23;;;;;;;3.08;2.88;;;;;;;22.52;54.30;98645.97;5023025;28;20092;-64
2021/07/11 10:47:49;;;;;;;3.30;3.10;;;;;;;22.64;54.19;98650.38;5023909;28;20091;-63
2021/07/11 10:50:29;;;;;;;3.00;2.90;;;;;;;22.86;53.71;98651.56;5027885;28;20037;-63
2021/07/11 10:52:56;;;;;;;3.10;2.90;;;;;;;22.90;53.55;98660.84;5029366;28;20064;-63
2021/07/11 10:55:23;;;;;;;3.42;2.88;;;;;;;22.90;54.05;98663.47;5035165;28;20101;-63
2021/07/11 10:57:48;;;;;;;3.22;3.03;;;;;;;23.22;52.92;98672.53;5029631;28;20030;-63
2021/07/11 11:00:25;;;;;;;3.28;2.75;;;;;;;23.42;51.98;98682.47;5030664;28;20348;-63
2021/07/11 11:02:52;;;;;;;2.63;2.40;;;;;;;23.65;51.32;98680.84;5026617;28;20112;-63
2021/07/11 11:05:25;;;;;;;3.90;3.60;;;;;;;23.80;51.10;98682.38;5027597;28;20092;-63
2021/07/11 11:07:53;;;;;;;3.45;3.17;;;;;;;23.81;51.62;98672.72;5028315;28;20401;-63
2021/07/11 11:10:24;;;;;;;3.03;2.83;;;;;;;23.56;51.95;98682.34;5026143;28;20557;-63
2021/07/11 11:13:00;;;;;;;4.13;3.10;;;;;;;23.55;51.92;98674.63;5028023;28;20037;-63
2021/07/11 11:15:33;;;;;;;3.53;3.33;;;;;;;23.47;51.71;98672.50;5024300;28;20038;-63
2021/07/11 11:17:58;;;;;;;3.10;2.83;;;;;;;;;;5040265;28;20021;-63
2021/07/11 11:20:26;;;;;;;3.78;3.03;;;;;;;23.06;52.92;98664.09;5028916;28;20297;-63
2021/07/11 11:22:53;;;;;;;3.25;3.05;;;;;;;23.59;51.57;98655.94;5029842;28;20052;-63
2021/07/11 11:25:22;;;;;;;3.22;3.03;;;;;;;23.65;51.34;98658.13;5033058;28;20102;-63
2021/07/11 11:27:54;;;;;;;4.97;3.40;;;;;;;23.80;50.49;98653.59;5027406;28;20047;-63
2021/07/11 11:30:23;;;;;;;3.58;3.38;;;;;;;23.76;50.75;98649.50;5025300;28;20017;-62
2021/07/11 11:32:55;;;;;;;4.43;4.03;;;;;;;23.86;49.97;98644.41;5032297;28;20092;-62
2021/07/11 11:35:24;;;;;;;3.95;3.65;;;;;;;23.75;50.54;98639.13;5033468;28;20063;-63